Time;durP1;ratioP1;P1;durP2;ratioP2;P2;SDS_P1;SDS_P2;PMS_P1;PMS_P2;Temp;Humidity;BMP_temperature;BMP_pressure;BME280_temperature;BME280_humidity;BME280_pressure;Samples;Min_cycle;Max_cycle;Signal;HPM_P1;HPM_P2
2022/10/14 00:00:37;;;;;;;3.17;1.52;;;11.50;91.00;;;;;;6336016;22;19995;-75
2022/10/14 00:03:03;;;;;;;3.22;1.38;;;11.50;91.00;;;;;;6336229;22;19999;-75
2022/10/14 00:05:29;;;;;;;2.45;1.17;;;11.50;91.00;;;;;;6336569;22;20018;-75
2022/10/14 00:07:54;;;;;;;3.97;1.63;;;11.40;91.00;;;;;;6335964;22;20014;-75
2022/10/14 00:10:20;;;;;;;2.33;1.20;;;11.40;91.40;;;;;;6308015;22;20026;-76
2022/10/14 00:12:46;;;;;;;2.42;1.25;;;11.40;91.10;;;;;;6336380;22;20033;-75
2022/10/14 00:15:12;;;;;;;3.22;1.30;;;11.40;91.10;;;;;;6336080;22;20006;-75
2022/10/14 00:17:38;;;;;;;2.78;1.30;;;11.40;91.10;;;;;;6307980;22;20415;-75
2022/10/14 00:20:05;;;;;;;2.15;1.13;;;11.50;91.10;;;;;;6335793;22;20056;-75
2022/10/14 00:22:31;;;;;;;1.73;0.95;;;11.40;91.10;;;;;;6336130;22;20002;-75
2022/10/14 00:24:56;;;;;;;2.05;1.10;;;11.40;91.10;;;;;;6335297;22;20193;-75
2022/10/14 00:27:22;;;;;;;2.92;1.30;;;11.40;91.10;;;;;;6335612;22;19998;-75
2022/10/14 00:29:48;;;;;;;2.60;1.25;;;11.40;91.10;;;;;;6282063;22;20003;-75
2022/10/14 00:32:14;;;;;;;2.47;1.08;;;11.40;91.10;;;;;;6336172;22;20011;-75
2022/10/14 00:34:40;;;;;;;2.00;1.10;;;11.40;91.10;;;;;;6335697;22;20002;-75
2022/10/14 00:37:05;;;;;;;1.70;0.98;;;11.40;91.10;;;;;;6308493;22;20010;-75
2022/10/14 00:39:31;;;;;;;3.35;1.02;;;11.50;91.10;;;;;;6336139;22;20055;-75
2022/10/14 00:41:57;;;;;;;2.17;1.08;;;11.40;91.10;;;;;;6335292;22;20098;-75
2022/10/14 00:44:53;;;;;;;2.35;1.25;;;11.40;91.10;;;;;;6335798;22;20326;-75
2022/10/14 00:47:19;;;;;;;2.60;1.30;;;11.30;91.10;;;;;;6315509;22;20007;-75
2022/10/14 00:49:45;;;;;;;2.17;1.10;;;11.30;91.20;;;;;;6307788;22;20387;-75
2022/10/14 00:52:15;;;;;;;2.33;1.15;;;11.20;91.20;;;;;;6335594;22;20011;-75
2022/10/14 00:54:45;;;;;;;1.83;1.13;;;11.20;91.30;;;;;;6335809;22;20075;-75
2022/10/14 00:57:11;;;;;;;2.30;1.10;;;11.20;91.30;;;;;;6335739;22;20072;-75
2022/10/14 00:59:37;;;;;;;1.92;1.00;;;11.10;91.30;;;;;;6335726;22;19999;-75
2022/10/14 01:02:03;;;;;;;2.38;1.10;;;11.10;91.30;;;;;;6335617;22;19999;-75
2022/10/14 01:04:29;;;;;;;1.33;0.80;;;11.10;91.40;;;;;;6335661;22;20018;-75
2022/10/14 01:07:23;;;;;;;1.45;0.90;;;11.00;91.30;;;;;;6335791;22;19999;-75
2022/10/14 01:10:14;;;;;;;2.17;1.02;;;11.00;91.40;;;;;;6335382;22;20003;-75
2022/10/14 01:13:13;;;;;;;1.47;0.83;;;11.00;91.40;;;;;;6335167;22;20454;-75
2022/10/14 01:16:08;;;;;;;1.60;0.95;;;11.00;91.30;;;;;;6335482;22;20259;-75
2022/10/14 01:18:58;;;;;;;2.05;1.20;;;11.00;91.30;;;;;;6307636;22;20461;-75
2022/10/14 01:21:34;;;;;;;1.58;0.90;;;11.10;91.30;;;;;;6335819;22;19999;-75
2022/10/14 01:24:37;;;;;;;1.80;1.05;;;11.10;91.30;;;;;;6335053;22;20330;-75
2022/10/14 01:27:29;;;;;;;1.70;0.90;;;11.10;91.30;;;;;;6335077;22;20006;-75
2022/10/14 01:30:20;;;;;;;1.45;0.90;;;11.10;91.50;;;;;;6308502;22;20033;-75
2022/10/14 01:33:17;;;;;;;1.90;0.97;;;11.00;91.20;;;;;;6307447;22;20072;-75
2022/10/14 01:35:56;;;;;;;1.55;1.00;;;11.10;91.50;;;;;;6286300;22;20259;-75
2022/10/14 01:38:29;;;;;;;2.15;1.10;;;11.10;91.20;;;;;;6337210;22;20358;-75
2022/10/14 01:41:02;;;;;;;1.50;1.00;;;11.10;91.20;;;;;;6309403;22;20338;-75
2022/10/14 01:43:30;;;;;;;1.67;0.75;;;11.20;91.20;;;;;;6309330;22;20052;-75
2022/10/14 01:45:59;;;;;;;1.60;1.00;;;11.10;91.10;;;;;;6336806;22;20003;-75
2022/10/14 01:48:32;;;;;;;1.95;0.98;;;11.10;91.10;;;;;;6336499;22;20454;-75
2022/10/14 01:51:01;;;;;;;1.67;0.95;;;11.10;91.10;;;;;;6337482;22;20097;-75
2022/10/14 01:53:38;;;;;;;1.88;1.02;;;11.10;91.10;;;;;;6309076;22;20070;-76
2022/10/14 01:56:06;;;;;;;1.85;0.93;;;11.10;91.10;;;;;;6336664;22;20022;-75
2022/10/14 01:58:33;;;;;;;4.38;1.50;;;11.10;91.10;;;;;;6337206;22;19995;-75
2022/10/14 02:01:02;;;;;;;3.00;1.50;;;11.10;91.20;;;;;;6310129;22;19998;-76
2022/10/14 02:03:38;;;;;;;2.42;1.30;;;11.00;91.20;;;;;;6337272;22;20006;-75
2022/10/14 02:06:09;;;;;;;1.63;1.00;;;11.10;91.20;;;;;;6308967;22;19999;-75
2022/10/14 02:09:02;;;;;;;2.33;1.10;;;11.00;91.20;;;;;;6337096;22;20003;-76
2022/10/14 02:11:40;;;;;;;1.70;0.95;;;11.10;91.20;;;;;;6336296;22;20373;-76
2022/10/14 02:14:32;;;;;;;2.38;1.15;;;11.10;91.20;;;;;;6336749;22;19995;-75
2022/10/14 02:17:08;;;;;;;2.92;1.40;;;11.10;91.20;;;;;;6336771;22;20055;-75
2022/10/14 02:19:43;;;;;;;3.10;1.50;;;11.10;91.10;;;;;;6336226;22;20003;-75
2022/10/14 02:22:23;;;;;;;2.90;1.30;;;11.10;91.20;;;;;;6336519;22;20130;-75
2022/10/14 02:24:54;;;;;;;1.83;1.10;;;11.30;91.20;;;;;;6308312;22;20067;-76
2022/10/14 02:27:23;;;;;;;2.92;1.27;;;11.10;91.10;;;;;;6308317;22;20003;-76
2022/10/14 02:29:51;;;;;;;2.22;1.13;;;11.20;91.10;;;;;;6336832;22;20006;-76
2022/10/14 02:32:19;;;;;;;1.92;1.10;;;11.20;91.10;;;;;;6308675;22;20084;-76
2022/10/14 02:34:48;;;;;;;3.20;1.55;;;11.10;91.10;;;;;;6336453;22;20070;-76
2022/10/14 02:37:16;;;;;;;2.10;1.13;;;11.20;91.10;;;;;;6308655;22;20002;-76
2022/10/14 02:39:50;;;;;;;2.13;1.27;;;11.20;91.10;;;;;;6336290;22;20378;-76
2022/10/14 02:42:16;;;;;;;2.53;1.27;;;11.20;91.10;;;;;;6336668;22;20009;-76
2022/10/14 02:44:59;;;;;;;2.28;1.10;;;11.20;91.10;;;;;;6336288;22;20027;-76
2022/10/14 02:47:25;;;;;;;2.03;1.10;;;11.20;91.10;;;;;;6335656;22;20082;-76
2022/10/14 02:49:51;;;;;;;3.33;1.35;;;11.20;91.00;;;;;;6336585;22;20304;-76
2022/10/14 02:52:17;;;;;;;2.60;1.23;;;11.30;91.10;;;;;;6336972;22;20033;-76
2022/10/14 02:54:43;;;;;;;2.95;1.40;;;11.30;91.00;;;;;;6336898;22;20419;-75
2022/10/14 02:57:09;;;;;;;3.03;1.50;;;11.40;91.10;;;;;;6336861;22;20052;-76
2022/10/14 02:59:35;;;;;;;2.83;1.40;;;11.30;91.10;;;;;;6308991;22;20087;-76
2022/10/14 03:02:00;;;;;;;3.72;1.50;;;11.30;91.00;;;;;;6335970;22;20395;-76
2022/10/14 03:04:26;;;;;;;3.00;1.35;;;11.30;91.00;;;;;;6308481;22;20068;-75
2022/10/14 03:06:52;;;;;;;3.75;1.40;;;11.30;91.00;;;;;;6309100;22;20002;-75
2022/10/14 03:09:18;;;;;;;2.60;1.30;;;11.40;91.00;;;;;;6335987;22;20006;-76
2022/10/14 03:11:44;;;;;;;3.35;1.40;;;11.30;91.00;;;;;;6336135;22;20098;-76
2022/10/14 03:14:11;;;;;;;4.50;1.80;;;11.40;91.00;;;;;;6308582;22;20014;-76
2022/10/14 03:16:36;;;;;;;3.53;1.60;;;11.40;91.00;;;;;;6336315;22;20074;-76
2022/10/14 03:19:02;;;;;;;3.88;1.67;;;11.40;91.00;;;;;;6335842;22;20018;-76
2022/10/14 03:21:28;;;;;;;4.10;1.67;;;11.40;91.00;;;;;;6336072;22;20017;-76
2022/10/14 03:23:54;;;;;;;2.88;1.40;;;11.40;91.00;;;;;;6308226;22;20052;-76
2022/10/14 03:26:19;;;;;;;2.75;1.30;;;11.40;91.00;;;;;;6336719;22;20023;-75
2022/10/14 03:28:45;;;;;;;3.95;1.90;;;11.50;91.00;;;;;;6309000;22;20011;-76
2022/10/14 03:31:11;;;;;;;2.72;1.23;;;11.40;91.00;;;;;;6336003;22;20018;-76
2022/10/14 03:33:37;;;;;;;2.95;1.42;;;11.50;91.00;;;;;;6336901;22;20064;-76
2022/10/14 03:36:03;;;;;;;3.83;1.63;;;11.50;91.00;;;;;;6336492;22;20326;-75
2022/10/14 03:38:28;;;;;;;3.58;1.73;;;11.50;91.00;;;;;;6335955;22;20003;-76
2022/10/14 03:40:54;;;;;;;3.38;1.48;;;11.50;91.10;;;;;;6336681;22;20488;-76
2022/10/14 03:43:20;;;;;;;2.92;1.40;;;11.50;91.00;;;;;;6336752;22;20002;-76
2022/10/14 03:45:46;;;;;;;3.35;1.67;;;11.50;91.10;;;;;;6336444;22;20485;-76
2022/10/14 03:48:11;;;;;;;3.63;1.58;;;11.50;91.10;;;;;;6335879;22;19999;-76
2022/10/14 03:50:37;;;;;;;3.88;1.52;;;11.60;91.10;;;;;;6336050;22;20005;-76
2022/10/14 03:53:03;;;;;;;3.03;1.50;;;11.60;91.10;;;;;;6282783;22;19999;-76
2022/10/14 03:55:29;;;;;;;3.13;1.52;;;11.60;91.00;;;;;;6335709;22;19995;-76
2022/10/14 03:57:55;;;;;;;4.63;1.67;;;11.50;91.00;;;;;;6335961;22;20014;-76
2022/10/14 04:00:20;;;;;;;4.32;1.90;;;11.60;91.00;;;;;;6335806;22;20315;-76
2022/10/14 04:02:46;;;;;;;4.53;1.88;;;11.70;91.00;;;;;;6336064;22;20014;-75
2022/10/14 04:05:12;;;;;;;4.55;1.75;;;11.60;91.00;;;;;;6336618;22;20344;-76
2022/10/14 04:07:38;;;;;;;3.88;1.73;;;11.60;91.00;;;;;;6309293;22;20006;-76
2022/10/14 04:10:05;;;;;;;3.08;1.67;;;11.60;91.00;;;;;;6335906;22;20085;-76
2022/10/14 04:12:31;;;;;;;3.25;1.60;;;11.70;91.00;;;;;;6336668;22;20017;-76
2022/10/14 04:14:57;;;;;;;4.35;1.77;;;11.60;91.00;;;;;;6336818;22;20033;-76
2022/10/14 04:17:24;;;;;;;3.90;1.50;;;11.70;91.00;;;;;;6308391;22;20085;-76
2022/10/14 04:19:50;;;;;;;3.67;1.58;;;11.70;91.00;;;;;;6335641;22;20457;-76
2022/10/14 04:22:17;;;;;;;4.00;1.80;;;11.70;91.00;;;;;;6336170;22;20331;-76
2022/10/14 04:24:43;;;;;;;4.95;1.90;;;11.70;91.00;;;;;;6336631;22;20006;-76
2022/10/14 04:27:09;;;;;;;3.17;1.80;;;11.70;91.00;;;;;;6336721;22;20030;-76
2022/10/14 04:29:35;;;;;;;4.53;1.92;;;11.70;91.00;;;;;;6336110;22;20007;-76
2022/10/14 04:32:01;;;;;;;4.22;1.73;;;11.80;91.00;;;;;;6336053;22;20041;-76
2022/10/14 04:34:26;;;;;;;3.58;1.60;;;11.80;91.00;;;;;;6336391;22;20323;-75
2022/10/14 04:36:52;;;;;;;5.75;2.00;;;11.80;91.00;;;;;;6336273;22;19999;-75
2022/10/14 04:39:18;;;;;;;4.40;2.00;;;11.80;91.00;;;;;;6336724;22;19999;-75
2022/10/14 04:41:44;;;;;;;4.63;2.05;;;11.80;91.00;;;;;;6308735;22;20042;-76
2022/10/14 04:44:10;;;;;;;3.75;1.85;;;11.90;91.00;;;;;;6308528;22;20089;-76
2022/10/14 04:46:36;;;;;;;3.67;1.55;;;11.80;91.00;;;;;;6308266;22;20011;-76
2022/10/14 04:49:01;;;;;;;4.22;1.52;;;11.90;91.00;;;;;;6308848;22;20003;-76
2022/10/14 04:51:27;;;;;;;3.33;1.63;;;11.90;91.00;;;;;;6336070;22;20099;-76
2022/10/14 04:53:53;;;;;;;3.83;1.85;;;11.90;91.00;;;;;;6308463;22;20076;-76
2022/10/14 04:56:18;;;;;;;2.95;1.65;;;11.90;91.00;;;;;;6308484;22;20002;-76
2022/10/14 04:58:44;;;;;;;3.92;1.75;;;11.90;91.00;;;;;;6336470;22;19995;-76
2022/10/14 05:01:10;;;;;;;3.95;1.88;;;11.90;91.00;;;;;;6336069;22;20023;-76
2022/10/14 05:03:36;;;;;;;3.55;1.63;;;11.90;91.00;;;;;;6336807;22;19999;-76
2022/10/14 05:06:01;;;;;;;3.17;1.60;;;11.90;91.00;;;;;;6336933;22;20011;-76
2022/10/14 05:08:27;;;;;;;4.15;1.70;;;11.90;91.00;;;;;;6336560;22;20003;-76
2022/10/14 05:10:53;;;;;;;4.07;1.63;;;11.90;91.00;;;;;;6309148;22;20014;-75
2022/10/14 05:13:19;;;;;;;3.40;1.65;;;11.90;91.00;;;;;;6338057;22;20078;-76
2022/10/14 05:15:44;;;;;;;4.13;1.75;;;11.90;91.00;;;;;;6309198;22;20030;-76
2022/10/14 05:18:11;;;;;;;3.25;1.67;;;12.00;91.00;;;;;;6337987;22;20064;-75
2022/10/14 05:20:37;;;;;;;3.63;1.83;;;12.00;91.00;;;;;;6337493;22;20001;-76
2022/10/14 05:23:04;;;;;;;3.47;1.67;;;12.00;91.00;;;;;;6337607;22;20031;-75
2022/10/14 05:25:30;;;;;;;3.25;1.55;;;12.00;91.00;;;;;;6337474;22;19995;-75
2022/10/14 05:27:55;;;;;;;4.50;2.03;;;12.00;91.00;;;;;;6338036;22;20007;-76
2022/10/14 05:30:21;;;;;;;3.13;1.55;;;12.00;91.00;;;;;;6337673;22;19998;-76
2022/10/14 05:32:48;;;;;;;3.85;1.98;;;12.00;91.00;;;;;;6337455;22;20010;-76
2022/10/14 05:35:14;;;;;;;4.50;1.92;;;12.10;91.30;;;;;;6310017;22;20427;-76
2022/10/14 05:37:40;;;;;;;3.03;1.80;;;12.10;91.00;;;;;;6337414;22;19995;-76
2022/10/14 05:40:06;;;;;;;4.20;1.95;;;12.10;91.00;;;;;;6309582;22;20423;-75
2022/10/14 05:42:32;;;;;;;4.28;2.10;;;12.10;91.00;;;;;;6310416;22;20003;-76
2022/10/14 05:44:58;;;;;;;3.58;1.80;;;12.20;91.30;;;;;;6337608;22;20011;-76
2022/10/14 05:47:23;;;;;;;4.25;1.90;;;12.20;91.00;;;;;;6309736;22;20010;-76
2022/10/14 05:49:49;;;;;;;4.18;2.05;;;12.20;91.00;;;;;;6309791;22;20023;-76
2022/10/14 05:52:15;;;;;;;3.60;1.88;;;12.30;91.00;;;;;;6337653;22;20038;-75
2022/10/14 05:54:41;;;;;;;3.00;1.77;;;12.30;91.00;;;;;;6337246;22;20002;-76
2022/10/14 05:57:07;;;;;;;3.25;1.67;;;12.30;91.00;;;;;;6309628;22;19998;-75
2022/10/14 05:59:33;;;;;;;2.05;1.30;;;12.30;91.00;;;;;;6309689;22;20003;-77
2022/10/14 06:02:00;;;;;;;1.70;1.30;;;12.30;91.00;;;;;;6337074;22;20396;-77
2022/10/14 06:04:26;;;;;;;2.65;1.45;;;12.30;91.00;;;;;;6337196;22;20010;-76
2022/10/14 06:06:51;;;;;;;2.40;1.30;;;12.40;91.00;;;;;;6309740;22;20003;-77
2022/10/14 06:09:17;;;;;;;2.08;1.40;;;12.40;90.90;;;;;;6337273;22;20371;-77
2022/10/14 06:11:44;;;;;;;2.35;1.50;;;12.50;91.00;;;;;;6337041;22;20094;-77
2022/10/14 06:14:10;;;;;;;3.00;1.63;;;12.50;91.00;;;;;;6341505;22;20720;-76
2022/10/14 06:16:36;;;;;;;2.35;1.48;;;12.50;91.00;;;;;;6310791;22;20003;-77
2022/10/14 06:19:02;;;;;;;2.28;1.45;;;12.50;91.00;;;;;;6337175;22;20454;-77
2022/10/14 06:21:28;;;;;;;2.35;1.40;;;12.60;91.00;;;;;;6337277;22;20005;-77
2022/10/14 06:23:53;;;;;;;1.77;1.15;;;12.60;91.00;;;;;;6336977;22;20094;-77
2022/10/14 06:26:19;;;;;;;2.28;1.30;;;12.60;91.00;;;;;;6283701;22;20069;-78
2022/10/14 06:28:45;;;;;;;2.03;1.38;;;12.60;91.00;;;;;;6310265;22;20002;-77
2022/10/14 06:31:11;;;;;;;1.95;1.38;;;12.70;91.00;;;;;;6337430;22;20014;-79
2022/10/14 06:33:36;;;;;;;2.30;1.45;;;12.70;91.00;;;;;;6337277;22;20072;-78
2022/10/14 06:57:49;;;;;;;1.13;0.88;;;12.90;90.90;;;;;;6174725;23;20020;-77
2022/10/14 08:50:28;;;;;;;1.15;0.90;;;13.90;91.00;;;;;;6058049;23;20049;-77
2022/10/14 10:24:20;;;;;;;0.77;0.70;;;14.80;91.20;;;;;;5793126;24;20061;-77
2022/10/14 10:35:05;;;;;;;0.73;0.73;;;14.90;91.20;;;;;;5741857;24;20127;-77
2022/10/14 10:48:31;;;;;;;1.33;0.90;;;15.10;91.20;;;;;;5788497;24;20507;-77
2022/10/14 10:51:06;;;;;;;1.10;1.00;;;15.20;91.10;;;;;;5789307;24;20034;-77
2022/10/14 11:12:34;;;;;;;1.10;1.00;;;15.40;91.00;;;;;;6059619;23;20522;-77
2022/10/14 11:15:45;;;;;;;1.25;1.10;;;15.40;91.00;;;;;;6040407;23;20452;-76
2022/10/14 11:37:28;;;;;;;1.17;1.05;;;15.40;91.10;;;;;;5949340;23;20443;-78
2022/10/14 11:47:21;;;;;;;1.42;1.33;;;15.40;91.10;;;;;;5944398;23;20482;-77
2022/10/14 11:50:40;;;;;;;1.17;1.08;;;15.50;91.20;;;;;;5880229;24;20544;-78
2022/10/14 11:57:21;;;;;;;1.40;1.20;;;15.40;91.30;;;;;;5892326;24;20053;-78
2022/10/14 12:00:10;;;;;;;1.20;1.00;;;15.40;91.30;;;;;;5829811;24;20026;-76
2022/10/14 12:28:51;;;;;;;0.85;0.60;;;15.30;91.50;;;;;;5825481;24;20046;-77
2022/10/14 12:38:42;;;;;;;0.68;0.63;;;15.40;91.50;;;;;;5976315;23;20353;-79
2022/10/14 12:41:31;;;;;;;0.35;0.35;;;15.40;91.40;;;;;;5979236;23;20042;-79
2022/10/14 12:44:02;;;;;;;0.47;0.47;;;15.50;91.50;;;;;;5978262;23;20009;-80
2022/10/14 12:47:23;;;;;;;0.63;0.60;;;15.60;91.50;;;;;;5979984;23;20083;-80
2022/10/14 12:49:53;;;;;;;0.70;0.70;;;15.60;91.40;;;;;;5977484;23;20253;-79
2022/10/14 16:04:58;;;;;;;1.88;1.20;;;15.20;92.00;;;;;;6300913;22;20023;-76
2022/10/14 16:07:24;;;;;;;2.22;1.30;;;15.30;92.00;;;;;;6304727;22;20011;-77
2022/10/14 16:09:50;;;;;;;2.00;1.33;;;15.20;92.00;;;;;;6275895;22;20098;-77
2022/10/14 16:12:16;;;;;;;2.33;1.35;;;15.20;92.00;;;;;;6277890;22;20011;-77
2022/10/14 16:14:42;;;;;;;2.10;1.40;;;15.20;92.00;;;;;;6251777;22;20019;-77
2022/10/14 16:17:08;;;;;;;1.58;1.20;;;15.20;92.00;;;;;;6275897;22;20462;-78
2022/10/14 16:19:34;;;;;;;2.47;1.30;;;15.10;92.00;;;;;;6275398;22;20015;-77
2022/10/14 16:22:00;;;;;;;2.17;1.30;;;15.10;92.00;;;;;;6305272;22;20447;-78
2022/10/14 16:24:26;;;;;;;1.17;0.95;;;15.00;92.00;;;;;;6276116;22;20447;-77
2022/10/14 16:26:52;;;;;;;1.70;1.20;;;15.00;92.00;;;;;;6275389;22;20011;-77
2022/10/14 16:29:19;;;;;;;1.98;1.17;;;15.00;92.00;;;;;;6277610;22;20035;-77
2022/10/14 16:31:48;;;;;;;1.90;1.17;;;15.00;92.10;;;;;;6251525;22;20023;-77
2022/10/14 16:34:15;;;;;;;1.83;1.15;;;14.90;92.10;;;;;;6276899;22;20069;-77
2022/10/14 16:36:41;;;;;;;1.80;1.30;;;14.90;92.10;;;;;;6304818;22;20330;-77
2022/10/14 16:39:09;;;;;;;2.47;1.50;;;14.90;92.10;;;;;;6305129;22;19999;-77
2022/10/14 16:41:35;;;;;;;2.20;1.40;;;14.80;92.10;;;;;;6277201;22;20000;-77
2022/10/14 16:44:01;;;;;;;2.42;1.48;;;14.80;92.10;;;;;;6305098;22;20002;-77
2022/10/14 16:49:07;;;;;;;3.55;2.00;;;14.70;92.10;;;;;;6304854;22;20011;-77
2022/10/14 16:51:33;;;;;;;2.20;1.40;;;14.70;92.10;;;;;;6304587;22;20011;-77
2022/10/14 16:53:59;;;;;;;2.45;1.50;;;14.70;92.10;;;;;;6277987;22;20033;-77
2022/10/14 16:57:00;;;;;;;2.60;1.77;;;14.70;92.10;;;;;;6302136;22;20007;-77
2022/10/14 16:59:11;;;;;;;3.15;1.63;;;14.60;92.10;;;;;;6281028;22;20012;-77
2022/10/14 17:01:38;;;;;;;2.47;1.83;;;14.70;92.10;;;;;;6265684;22;20022;-76
2022/10/14 17:04:05;;;;;;;2.92;1.92;;;14.70;92.10;;;;;;6303177;22;20502;-77
2022/10/14 17:06:31;;;;;;;2.80;1.70;;;14.60;92.10;;;;;;6303322;22;20011;-78
2022/10/14 17:08:56;;;;;;;2.92;1.77;;;14.60;92.10;;;;;;6301974;22;20019;-75
2022/10/14 17:11:23;;;;;;;2.70;1.60;;;14.60;92.10;;;;;;6280423;22;20336;-76
2022/10/14 17:13:52;;;;;;;2.08;1.40;;;14.50;92.10;;;;;;6304882;22;20030;-75
2022/10/14 17:16:17;;;;;;;1.98;1.40;;;14.50;92.10;;;;;;6301511;22;20019;-75
2022/10/14 17:18:43;;;;;;;2.60;1.60;;;14.50;92.10;;;;;;6304028;22;20003;-75
2022/10/14 17:21:11;;;;;;;2.33;1.45;;;14.40;92.10;;;;;;6274270;22;20443;-74
2022/10/14 17:23:40;;;;;;;2.53;1.67;;;14.50;92.20;;;;;;6304617;22;19999;-75
2022/10/14 17:26:10;;;;;;;2.13;1.58;;;14.40;92.20;;;;;;6271157;22;19999;-75
2022/10/14 17:28:38;;;;;;;2.75;1.70;;;14.50;92.20;;;;;;6276936;22;20003;-75
2022/10/14 17:31:09;;;;;;;2.92;1.73;;;14.40;92.20;;;;;;6276753;22;20007;-75
2022/10/14 17:33:35;;;;;;;2.08;1.42;;;14.40;92.20;;;;;;6276875;22;20153;-73
2022/10/14 17:36:02;;;;;;;1.67;1.23;;;14.40;92.20;;;;;;6303774;22;20013;-74
2022/10/14 17:38:30;;;;;;;1.95;1.27;;;14.30;92.20;;;;;;6304526;22;19999;-74
2022/10/14 17:41:13;;;;;;;1.83;1.23;;;14.30;92.20;;;;;;6304197;22;20023;-75
2022/10/14 17:43:39;;;;;;;2.22;1.13;;;14.30;92.20;;;;;;6303461;22;20057;-75
2022/10/14 17:46:07;;;;;;;1.88;1.30;;;14.30;92.20;;;;;;6275281;22;20068;-75
2022/10/14 17:48:34;;;;;;;2.75;1.50;;;14.30;92.20;;;;;;6304403;22;20003;-76
2022/10/14 17:51:01;;;;;;;3.25;1.88;;;14.20;92.20;;;;;;6251123;22;20082;-77
2022/10/14 17:53:27;;;;;;;2.17;1.40;;;14.30;92.20;;;;;;6297409;22;20432;-77
2022/10/14 17:55:53;;;;;;;2.17;1.40;;;14.20;92.20;;;;;;6277387;22;20097;-77
2022/10/14 17:58:20;;;;;;;1.98;1.40;;;14.20;92.20;;;;;;6275155;22;20493;-77
2022/10/14 18:00:46;;;;;;;2.40;1.40;;;14.20;92.20;;;;;;6271636;22;20007;-77
2022/10/14 18:03:12;;;;;;;2.80;1.60;;;14.10;92.20;;;;;;6276061;22;20451;-77
2022/10/14 18:05:39;;;;;;;1.88;1.40;;;14.10;92.50;;;;;;6277054;22;20013;-76
2022/10/14 18:08:06;;;;;;;2.70;1.50;;;14.10;92.20;;;;;;6272017;22;20077;-76
2022/10/14 18:10:34;;;;;;;2.70;1.55;;;14.10;92.20;;;;;;6304235;22;20412;-77
2022/10/14 18:13:00;;;;;;;2.17;1.30;;;14.10;92.20;;;;;;6274020;22;20390;-77
2022/10/14 18:15:26;;;;;;;2.80;1.40;;;14.00;92.20;;;;;;6250691;22;19995;-77
2022/10/14 18:17:56;;;;;;;2.40;1.40;;;14.10;92.20;;;;;;6275753;22;20046;-76
2022/10/14 18:20:22;;;;;;;1.63;1.20;;;14.00;92.20;;;;;;6308803;22;20011;-77
2022/10/14 18:22:48;;;;;;;1.63;1.15;;;14.00;92.20;;;;;;6305424;22;20011;-76
2022/10/14 18:25:14;;;;;;;2.65;1.42;;;13.90;92.20;;;;;;6305847;22;20021;-76
2022/10/14 18:27:41;;;;;;;2.25;1.42;;;13.90;92.20;;;;;;6277502;22;20379;-76
2022/10/14 18:30:08;;;;;;;1.83;1.30;;;13.90;92.20;;;;;;6278140;22;20034;-76
2022/10/14 18:32:34;;;;;;;2.13;1.40;;;13.90;92.20;;;;;;6278652;22;20434;-76
2022/10/14 18:35:01;;;;;;;1.95;1.30;;;13.80;92.20;;;;;;6277841;22;20064;-76
2022/10/14 18:37:26;;;;;;;1.67;1.15;;;13.90;92.30;;;;;;6305706;22;20644;-76
2022/10/14 18:39:52;;;;;;;2.65;1.27;;;13.80;92.20;;;;;;6305278;22;20002;-76
2022/10/14 18:42:18;;;;;;;2.28;1.45;;;13.80;92.20;;;;;;6275452;22;20004;-76
2022/10/14 18:44:43;;;;;;;2.28;1.30;;;13.80;92.20;;;;;;6278262;22;20000;-76
2022/10/14 18:47:18;;;;;;;1.77;1.20;;;13.70;92.20;;;;;;6273305;22;20000;-78
2022/10/14 18:49:47;;;;;;;1.88;1.27;;;13.80;92.20;;;;;;6305258;22;20003;-78
2022/10/14 18:52:12;;;;;;;1.95;1.20;;;13.70;92.20;;;;;;6305804;22;20019;-77
2022/10/14 18:54:38;;;;;;;1.85;1.00;;;13.60;92.20;;;;;;6306098;22;20030;-78
2022/10/14 18:57:04;;;;;;;1.67;1.15;;;13.70;92.20;;;;;;6250038;22;20324;-78
2022/10/14 18:59:30;;;;;;;1.55;1.17;;;13.60;92.20;;;;;;6299314;22;20041;-78
2022/10/14 19:01:58;;;;;;;1.52;1.10;;;13.60;92.20;;;;;;6280189;22;20013;-78
2022/10/14 19:04:26;;;;;;;0.95;0.80;;;13.50;92.20;;;;;;6303736;22;20008;-78
2022/10/14 19:06:52;;;;;;;1.88;1.30;;;13.50;92.20;;;;;;6272914;22;20336;-78
2022/10/14 19:09:20;;;;;;;1.85;1.10;;;13.40;92.30;;;;;;6277003;22;20061;-78
2022/10/14 19:11:49;;;;;;;1.35;0.93;;;13.40;92.50;;;;;;6299823;22;20011;-78
2022/10/14 19:14:15;;;;;;;1.77;1.00;;;13.50;92.30;;;;;;6305470;22;20011;-78
2022/10/14 19:16:43;;;;;;;1.77;1.10;;;13.40;92.30;;;;;;6248965;22;20044;-78
2022/10/14 19:19:13;;;;;;;2.50;1.52;;;13.40;92.30;;;;;;6253517;22;20003;-77
2022/10/14 19:21:40;;;;;;;2.38;1.52;;;13.40;92.30;;;;;;6248694;22;20042;-78
2022/10/14 19:24:08;;;;;;;2.38;1.30;;;13.30;92.30;;;;;;6275125;22;20010;-78
2022/10/14 19:26:37;;;;;;;2.00;1.33;;;13.30;92.20;;;;;;6277560;22;19999;-78
2022/10/14 19:29:05;;;;;;;2.78;1.58;;;13.40;92.30;;;;;;6252898;22;20054;-78
2022/10/14 19:31:34;;;;;;;2.53;1.60;;;13.40;92.20;;;;;;6305200;22;20030;-78
2022/10/14 19:34:01;;;;;;;2.10;1.38;;;13.30;92.20;;;;;;6306345;22;20328;-78
2022/10/14 19:36:27;;;;;;;2.78;1.60;;;13.40;92.20;;;;;;6275641;22;20008;-79
2022/10/14 19:38:57;;;;;;;1.92;1.30;;;13.30;92.20;;;;;;6305107;22;20297;-79
2022/10/14 19:41:24;;;;;;;2.83;1.50;;;13.40;92.20;;;;;;6305672;22;20385;-78
2022/10/14 19:43:52;;;;;;;2.85;1.70;;;13.30;92.50;;;;;;6251634;22;20006;-79
2022/10/14 19:46:22;;;;;;;2.50;1.27;;;13.30;92.20;;;;;;6252393;22;20018;-79
2022/10/14 19:48:48;;;;;;;2.03;1.40;;;13.30;92.20;;;;;;6278469;22;20026;-80
2022/10/14 19:51:17;;;;;;;1.83;1.25;;;13.20;92.20;;;;;;6250196;22;20375;-79
2022/10/14 19:53:42;;;;;;;1.63;1.30;;;13.20;92.20;;;;;;6270312;22;20000;-80
2022/10/14 19:56:10;;;;;;;2.40;1.48;;;13.20;92.20;;;;;;6275156;22;20069;-79
2022/10/14 19:58:37;;;;;;;2.05;1.35;;;13.10;92.20;;;;;;6250633;22;20083;-80
2022/10/14 20:01:09;;;;;;;2.05;1.30;;;13.00;92.30;;;;;;6250262;22;19999;-80
2022/10/14 20:03:35;;;;;;;2.13;1.30;;;13.10;92.30;;;;;;6248720;22;20108;-78
2022/10/14 20:06:01;;;;;;;2.05;1.40;;;13.00;92.20;;;;;;6275847;22;20012;-78
2022/10/14 20:08:28;;;;;;;2.35;1.30;;;12.90;92.20;;;;;;6251856;22;20056;-78
2022/10/14 20:10:54;;;;;;;2.40;1.55;;;12.90;92.30;;;;;;6251398;22;20005;-78
2022/10/14 20:13:19;;;;;;;2.20;1.40;;;12.90;92.30;;;;;;6250839;22;20031;-78
2022/10/14 20:15:53;;;;;;;3.10;1.70;;;12.90;92.30;;;;;;6252733;22;20046;-78
2022/10/14 20:18:18;;;;;;;2.55;1.38;;;12.90;92.30;;;;;;6243780;22;20046;-78
2022/10/14 20:20:48;;;;;;;2.97;1.52;;;12.90;92.30;;;;;;6195386;22;20363;-77
2022/10/14 20:23:37;;;;;;;2.45;1.45;;;12.90;92.30;;;;;;6196140;22;20363;-79
2022/10/14 20:26:06;;;;;;;1.88;1.20;;;12.80;92.30;;;;;;6190474;22;20007;-78
2022/10/14 20:28:36;;;;;;;2.60;1.60;;;12.80;92.30;;;;;;6246032;22;20018;-78
2022/10/14 20:31:05;;;;;;;2.08;1.20;;;12.70;92.30;;;;;;6191387;22;20003;-77
2022/10/14 20:33:56;;;;;;;2.55;1.50;;;12.70;92.30;;;;;;6189811;22;20987;-77
2022/10/14 20:36:37;;;;;;;2.22;1.42;;;12.70;92.30;;;;;;6217740;22;20008;-77
2022/10/14 20:39:05;;;;;;;1.90;1.30;;;12.60;92.30;;;;;;6159730;23;20104;-77
2022/10/14 20:41:31;;;;;;;1.50;1.13;;;12.70;92.30;;;;;;6184402;23;20476;-77
2022/10/14 20:43:57;;;;;;;2.50;1.40;;;12.50;92.30;;;;;;6185146;23;20013;-77
2022/10/14 20:46:23;;;;;;;2.45;1.30;;;12.60;92.30;;;;;;6160657;23;20011;-77
2022/10/14 20:48:54;;;;;;;1.23;1.02;;;12.60;92.30;;;;;;6166939;23;20459;-77
2022/10/14 20:51:21;;;;;;;2.88;1.60;;;12.50;92.30;;;;;;6161023;23;20028;-77
2022/10/14 20:53:49;;;;;;;1.58;1.20;;;12.50;92.30;;;;;;6159286;23;20039;-78
2022/10/14 20:56:15;;;;;;;1.98;1.30;;;12.50;92.30;;;;;;6134856;23;20001;-79
2022/10/14 20:58:41;;;;;;;2.17;1.45;;;12.50;92.30;;;;;;6158211;23;20013;-79
2022/10/14 21:01:13;;;;;;;2.33;1.42;;;12.50;92.30;;;;;;6160732;23;20336;-79
2022/10/14 21:03:40;;;;;;;1.63;1.20;;;12.40;92.30;;;;;;6182343;23;20008;-79
2022/10/14 21:06:08;;;;;;;2.10;1.33;;;12.40;92.30;;;;;;6210356;23;20008;-79
2022/10/14 21:08:34;;;;;;;2.58;1.40;;;12.30;92.20;;;;;;6184826;23;20461;-79
2022/10/14 21:11:02;;;;;;;2.60;1.42;;;12.30;92.30;;;;;;6285358;22;20094;-79
2022/10/14 21:13:29;;;;;;;2.47;1.30;;;12.40;92.40;;;;;;6304389;22;20015;-79
2022/10/14 21:15:55;;;;;;;2.53;1.60;;;12.20;92.30;;;;;;6298854;22;19995;-79
2022/10/14 21:18:22;;;;;;;3.30;1.40;;;12.30;92.30;;;;;;6300729;22;20007;-79
2022/10/14 21:20:48;;;;;;;2.35;1.45;;;12.20;92.40;;;;;;6277445;22;19996;-79
2022/10/14 21:23:13;;;;;;;2.67;1.60;;;12.20;92.40;;;;;;6304579;22;20007;-79
2022/10/14 21:25:39;;;;;;;2.00;1.30;;;12.10;92.40;;;;;;6275429;22;20075;-79
2022/10/14 21:28:05;;;;;;;1.88;1.35;;;12.10;92.40;;;;;;6251385;22;20444;-79
2022/10/14 21:30:31;;;;;;;1.90;1.30;;;12.10;92.40;;;;;;6304543;22;20082;-79
2022/10/14 21:32:57;;;;;;;1.50;1.23;;;12.10;92.40;;;;;;6304563;22;20012;-79
2022/10/14 21:35:22;;;;;;;2.08;1.27;;;12.00;92.40;;;;;;6277668;22;20049;-79
2022/10/14 21:37:51;;;;;;;2.42;1.40;;;12.00;92.40;;;;;;6277448;22;20363;-79